Time;durP1;ratioP1;P1;durP2;ratioP2;P2;SDS_P1;SDS_P2;PMS_P1;PMS_P2;Temp;Humidity;BMP_temperature;BMP_pressure;BME280_temperature;BME280_humidity;BME280_pressure;Samples;Min_cycle;Max_cycle;Signal;HPM_P1;HPM_P2
2024/02/06 00:01:52;;;;;;;11.65;5.40;;;;;;;-144.05;83.71;57042.13;5090962;28;20016;-77
2024/02/06 00:04:18;;;;;;;12.60;4.85;;;;;;;-144.05;83.77;57016.63;5090831;28;20089;-80
2024/02/06 00:06:44;;;;;;;13.55;5.47;;;6.80;99.90;;;-144.05;83.64;57029.38;5090388;28;20024;-79
2024/02/06 00:09:11;;;;;;;10.50;5.18;;;;;;;-144.05;83.33;57054.88;5090965;28;20401;-79
2024/02/06 00:11:40;;;;;;;10.88;4.72;;;8.40;99.90;;;-144.05;83.59;57023.00;5090263;28;20459;-79
2024/02/06 00:14:10;;;;;;;9.60;4.22;;;7.50;99.90;;;-144.05;83.92;57001.75;5098233;28;20035;-76
2024/02/06 00:16:39;;;;;;;9.38;4.55;;;8.50;99.90;;;-144.05;83.74;57040.00;5097677;28;20046;-78
2024/02/06 00:19:06;;;;;;;10.73;5.03;;;;;;;-144.05;83.41;57035.75;5089136;28;20115;-77
2024/02/06 00:21:32;;;;;;;8.70;4.75;;;8.50;99.90;;;-144.05;83.22;57014.50;5089389;28;20020;-79
2024/02/06 00:24:01;;;;;;;9.98;4.53;;;8.50;99.90;;;-144.05;82.74;57014.50;5090743;28;20484;-79
2024/02/06 00:26:27;;;;;;;11.68;5.60;;;5.60;99.90;;;-144.05;82.74;57029.38;5097882;28;20035;-78
2024/02/06 00:28:53;;;;;;;11.35;4.72;;;7.10;99.90;;;-144.05;83.14;57046.38;5090618;28;20024;-80
2024/02/06 00:31:18;;;;;;;14.10;5.22;;;6.80;99.90;;;-144.05;82.29;57040.00;5099991;28;20024;-80
2024/02/06 00:33:45;;;;;;;11.98;4.95;;;;;;;-144.05;83.06;57020.88;5095384;28;20031;-78
2024/02/06 00:36:10;;;;;;;11.10;4.90;;;7.30;99.90;;;-144.05;83.63;57035.75;5090023;28;20028;-79
2024/02/06 00:38:36;;;;;;;13.25;5.22;;;10.60;99.90;;;-144.05;83.72;57031.50;5090589;28;20080;-78
2024/02/06 00:41:02;;;;;;;15.40;5.15;;;7.10;99.90;;;-144.05;84.07;56989.00;5088891;28;20043;-79
2024/02/06 00:43:28;;;;;;;12.05;5.15;;;7.00;99.90;;;-144.05;83.55;57027.25;5090449;28;20432;-79
2024/02/06 00:45:55;;;;;;;8.85;4.97;;;;;;;-144.05;83.96;57027.25;5090174;28;20036;-79
2024/02/06 00:48:20;;;;;;;10.27;5.00;;;7.20;99.90;;;-144.05;83.36;57031.50;5088629;28;20458;-79
2024/02/06 00:50:46;;;;;;;11.27;5.70;;;7.60;99.90;;;-144.05;83.74;57014.50;5097719;28;20148;-78
2024/02/06 00:53:12;;;;;;;16.73;5.43;;;8.30;99.90;;;-144.05;83.69;57023.00;5098778;28;20469;-80
2024/02/06 00:55:38;;;;;;;11.52;5.22;;;7.20;99.90;;;-144.05;83.44;57042.13;5088988;28;20357;-78
2024/02/06 00:58:04;;;;;;;10.40;4.40;;;;;;;-144.05;83.54;57035.75;5090837;28;20020;-79
2024/02/06 01:00:32;;;;;;;13.10;5.30;;;;;;;-144.05;83.77;57018.75;5090993;28;20032;-80
2024/02/06 01:02:58;;;;;;;11.85;5.53;;;7.40;99.90;;;-144.05;83.46;57023.00;5091157;28;20457;-80
2024/02/06 01:05:24;;;;;;;11.07;5.32;;;6.90;99.90;;;-144.05;83.35;57044.25;5090169;28;20079;-80
2024/02/06 01:07:49;;;;;;;11.80;4.32;;;7.30;99.90;;;-144.05;82.89;57025.13;5097884;28;20035;-79
2024/02/06 01:10:16;;;;;;;11.77;5.03;;;;;;;-144.05;83.25;57042.13;5098670;28;20035;-79
2024/02/06 01:12:42;;;;;;;10.63;4.50;;;;;;;-144.05;83.33;57016.63;5089046;28;20396;-80
2024/02/06 01:15:08;;;;;;;15.88;5.43;;;6.50;99.90;;;-144.05;83.52;57031.50;5090119;28;20476;-78
2024/02/06 01:17:34;;;;;;;12.30;5.30;;;;;;;-144.05;83.03;57042.13;5088937;28;20066;-79
2024/02/06 01:20:00;;;;;;;16.63;5.40;;;;;;;-144.05;82.83;57012.38;5089450;28;20400;-78
2024/02/06 01:22:26;;;;;;;14.40;5.50;;;7.10;99.90;;;-144.05;83.07;57018.75;5093270;28;20032;-78
2024/02/06 01:24:54;;;;;;;10.60;4.65;;;;;;;-144.05;82.56;57006.00;5095954;28;20481;-79
2024/02/06 01:27:19;;;;;;;7.50;4.55;;;14.20;99.90;;;-144.05;82.51;57025.13;5093063;28;20036;-79
2024/02/06 01:29:48;;;;;;;12.25;4.45;;;7.40;99.90;;;-144.05;82.84;57001.75;5094595;28;20117;-79
2024/02/06 01:32:14;;;;;;;12.55;5.40;;;7.10;99.90;;;-144.05;82.14;57025.13;5094919;28;20016;-79
2024/02/06 01:34:41;;;;;;;11.68;5.43;;;8.80;99.90;;;-144.05;82.75;57031.50;5093269;28;20103;-78
2024/02/06 01:37:07;;;;;;;12.15;5.05;;;7.10;99.90;;;-144.05;82.67;57006.00;5094023;28;20028;-79
2024/02/06 01:39:33;;;;;;;12.32;5.25;;;10.60;99.90;;;-144.05;81.98;57006.00;5094500;28;20457;-78
2024/02/06 01:42:03;;;;;;;9.55;4.40;;;8.90;99.90;;;-144.05;82.53;57016.63;5093796;28;20104;-79
2024/02/06 01:44:29;;;;;;;8.38;4.95;;;7.20;99.90;;;-144.05;82.34;57029.38;5093003;28;20508;-78
2024/02/06 01:46:57;;;;;;;9.13;4.78;;;8.80;99.90;;;-144.05;81.57;57016.63;5093574;28;20032;-79
2024/02/06 01:49:24;;;;;;;14.75;5.38;;;6.80;99.90;;;-144.05;81.24;57031.50;5094300;28;20527;-78
2024/02/06 01:51:52;;;;;;;7.68;4.75;;;;;;;-144.05;81.07;56997.50;5094367;28;20055;-81
2024/02/06 01:54:20;;;;;;;10.13;4.30;;;7.20;99.90;;;-144.05;81.32;57023.00;5094039;28;20024;-80
2024/02/06 01:56:48;;;;;;;7.90;4.50;;;7.30;99.90;;;-144.05;80.32;56967.78;5093459;28;20024;-78
2024/02/06 01:59:15;;;;;;;7.80;4.30;;;;;;;-144.05;80.37;57014.50;5093482;28;20427;-79
2024/02/06 02:01:42;;;;;;;13.50;4.63;;;7.60;99.90;;;-144.05;80.52;57014.50;5099751;28;20057;-81
2024/02/06 02:04:10;;;;;;;8.10;4.60;;;7.00;99.90;;;-144.05;79.87;57025.13;5093580;28;20108;-80
2024/02/06 02:06:36;;;;;;;5.85;3.58;;;;;;;-144.05;80.00;57050.63;5093005;28;20098;-77
2024/02/06 02:09:03;;;;;;;12.55;4.05;;;;;;;-144.05;79.80;57027.25;5091829;28;20097;-79
2024/02/06 02:11:28;;;;;;;15.02;3.85;;;7.00;99.90;;;-144.05;79.55;57018.75;5095114;28;20025;-79
2024/02/06 02:13:55;;;;;;;11.18;4.30;;;6.70;99.90;;;-144.05;79.34;57035.75;5098298;28;20051;-79
2024/02/06 02:16:22;;;;;;;12.82;4.43;;;7.00;99.90;;;-144.05;78.92;57008.13;5092583;28;20039;-77
2024/02/06 02:18:48;;;;;;;10.10;4.22;;;14.10;99.90;;;-144.05;78.63;57006.00;5103212;28;20020;-79
2024/02/06 02:21:17;;;;;;;8.70;3.83;;;;;;;-144.05;79.13;57020.88;5101349;28;20066;-79
2024/02/06 02:23:46;;;;;;;9.55;3.80;;;7.50;99.90;;;-144.05;78.55;57027.25;5100568;28;20077;-79
2024/02/06 02:26:16;;;;;;;7.18;4.10;;;7.00;99.90;;;-144.05;78.13;57029.38;5111605;28;20032;-80
2024/02/06 02:28:43;;;;;;;13.10;4.13;;;9.20;99.90;;;-144.05;78.28;57023.00;5094956;28;20501;-81
2024/02/06 02:31:10;;;;;;;10.35;4.60;;;7.40;99.90;;;-144.05;78.00;57023.00;5091518;28;20024;-80
2024/02/06 02:33:37;;;;;;;15.63;4.43;;;9.20;99.90;;;-144.05;77.96;57014.50;5092203;28;20054;-79
2024/02/06 02:36:07;;;;;;;10.10;3.78;;;6.70;99.90;;;-144.05;77.89;57006.00;5092915;28;20108;-79
2024/02/06 02:38:38;;;;;;;8.57;4.03;;;6.90;99.90;;;-144.05;78.04;57040.00;5093195;28;20103;-79
2024/02/06 02:41:05;;;;;;;15.75;4.30;;;;;;;-144.05;77.79;57027.25;5093186;28;20085;-80
2024/02/06 02:43:31;;;;;;;11.68;3.60;;;13.90;99.90;;;-144.05;77.59;57031.50;5091964;28;20063;-79
2024/02/06 02:45:58;;;;;;;12.85;4.25;;;;;;;-144.05;77.69;57031.50;5092978;28;20536;-80
2024/02/06 02:48:24;;;;;;;12.65;3.92;;;8.10;99.90;;;-144.05;77.28;57008.13;5093770;28;20036;-81
2024/02/06 02:50:50;;;;;;;9.82;3.83;;;;;;;-144.05;77.39;57006.00;5093495;28;20145;-78
2024/02/06 02:53:16;;;;;;;8.85;3.88;;;6.60;99.90;;;-144.05;77.43;57029.38;5093387;28;20059;-79
2024/02/06 02:55:42;;;;;;;7.25;3.97;;;;;;;-144.05;77.12;57014.50;5092112;28;20047;-79
2024/02/06 02:58:08;;;;;;;10.45;4.13;;;;;;;-144.05;77.01;57042.13;5093796;28;20027;-80
2024/02/06 03:00:35;;;;;;;6.30;3.25;;;;;;;-144.05;77.21;57016.63;5093353;28;20028;-77
2024/02/06 03:03:01;;;;;;;7.60;3.38;;;;;;;-144.05;77.40;57027.25;5093701;28;20024;-79
2024/02/06 03:05:28;;;;;;;11.60;3.75;;;;;;;-144.05;78.03;57031.50;5091481;28;20377;-78
2024/02/06 03:07:54;;;;;;;8.15;3.35;;;;;;;-144.05;77.68;57042.13;5091687;28;20017;-80
2024/02/06 03:10:20;;;;;;;8.15;4.20;;;14.00;99.90;;;-144.05;77.93;57027.25;5093807;28;20118;-81
2024/02/06 03:12:46;;;;;;;10.73;3.85;;;7.00;99.90;;;-144.05;77.61;57027.25;5095694;28;20077;-80
2024/02/06 03:15:12;;;;;;;13.50;3.67;;;;;;;-144.05;78.12;57018.75;5096206;28;20024;-81
2024/02/06 03:17:38;;;;;;;11.88;4.00;;;7.30;99.90;;;-144.05;77.59;57031.50;5094488;28;20429;-81
2024/02/06 03:20:10;;;;;;;8.23;3.90;;;9.20;99.90;;;-144.05;77.15;57042.13;5109345;28;20023;-79
2024/02/06 03:22:36;;;;;;;10.43;3.63;;;7.10;99.90;;;-144.05;77.69;57018.75;5105889;28;20028;-80
2024/02/06 03:25:01;;;;;;;9.48;4.05;;;10.80;99.90;;;-144.05;77.72;57042.13;5094837;28;20027;-81
2024/02/06 03:27:27;;;;;;;9.50;3.88;;;7.50;99.90;;;-144.05;77.54;57023.00;5105451;28;20028;-79
2024/02/06 03:29:53;;;;;;;9.32;4.07;;;14.20;99.90;;;-144.05;77.19;57010.25;5092680;28;20032;-78
2024/02/06 03:32:19;;;;;;;6.97;3.22;;;6.60;99.90;;;-144.05;77.10;56993.25;5094945;28;20514;-78
2024/02/06 03:34:45;;;;;;;10.13;3.90;;;;;;;-144.05;77.15;57048.50;5103066;28;20020;-79
2024/02/06 03:37:13;;;;;;;11.18;4.40;;;7.10;99.90;;;-144.05;77.31;57014.50;5107541;28;20043;-79
2024/02/06 03:39:39;;;;;;;14.35;4.18;;;7.30;99.90;;;-144.05;77.60;57016.63;5098714;28;20024;-80
2024/02/06 03:42:05;;;;;;;10.98;3.38;;;7.20;99.90;;;-144.05;77.35;57031.50;5097090;28;20408;-78
2024/02/06 03:44:31;;;;;;;9.27;3.40;;;;;;;-144.05;76.72;57018.75;5094574;28;20023;-79
2024/02/06 03:46:57;;;;;;;10.65;3.67;;;7.10;99.90;;;-144.05;77.16;57014.50;5091277;28;20103;-80
2024/02/06 03:49:23;;;;;;;11.38;3.88;;;8.00;99.90;;;-144.05;77.48;57023.00;5091852;28;20206;-78
2024/02/06 03:51:49;;;;;;;10.77;3.70;;;7.50;99.90;;;-144.05;77.26;57023.00;5091093;28;20041;-79
2024/02/06 03:54:15;;;;;;;11.23;3.63;;;;;;;-144.05;76.96;57018.75;5091847;28;20448;-79
2024/02/06 03:56:41;;;;;;;7.95;3.10;;;7.10;99.90;;;-144.05;76.68;57031.50;5103187;28;20145;-80
2024/02/06 03:59:06;;;;;;;8.80;3.50;;;7.10;99.90;;;-144.05;76.23;57025.13;5094192;28;20104;-79
2024/02/06 04:01:33;;;;;;;10.27;3.10;;;;;;;-144.05;76.49;57023.00;5090801;28;20111;-79
2024/02/06 04:03:58;;;;;;;8.48;3.35;;;6.80;99.90;;;-144.05;76.46;57012.38;5089636;28;20124;-78
2024/02/06 04:06:24;;;;;;;13.07;3.67;;;6.90;99.90;;;-144.05;76.85;57029.38;5102181;28;20524;-75
2024/02/06 04:08:51;;;;;;;7.53;3.22;;;;;;;-144.05;76.41;57040.00;5096174;28;20032;-78
2024/02/06 04:11:17;;;;;;;9.88;3.58;;;;;;;-144.05;75.85;57020.88;5090643;28;20115;-77
2024/02/06 04:13:42;;;;;;;9.35;3.10;;;6.70;99.90;;;-144.05;75.57;56997.50;5091060;28;20026;-78
2024/02/06 04:16:09;;;;;;;14.88;4.45;;;;;;;-144.05;76.15;57031.50;5100104;28;20119;-78
2024/02/06 04:18:36;;;;;;;15.05;3.65;;;6.80;99.90;;;-144.05;76.36;57027.25;5096849;28;20020;-79
2024/02/06 04:21:02;;;;;;;9.18;3.20;;;6.90;99.90;;;-144.05;76.61;57006.00;5089391;28;20016;-77
2024/02/06 04:23:28;;;;;;;14.63;3.47;;;7.20;99.90;;;-144.05;76.00;57010.25;5091269;28;20032;-79
2024/02/06 04:25:54;;;;;;;8.82;3.20;;;;;;;-144.05;76.05;57054.88;5097431;28;20027;-78
2024/02/06 04:28:21;;;;;;;8.82;2.90;;;6.90;99.90;;;-144.05;75.77;57016.63;5090974;28;20070;-78
2024/02/06 04:30:47;;;;;;;11.80;3.50;;;;;;;-144.05;75.91;57018.75;5093806;28;20124;-78
2024/02/06 04:33:13;;;;;;;7.78;3.50;;;7.50;99.90;;;-144.05;76.38;57001.75;5091790;28;20027;-80
2024/02/06 04:35:39;;;;;;;11.68;3.80;;;;;;;-144.05;75.84;57003.88;5105461;28;20114;-77
2024/02/06 04:38:05;;;;;;;15.00;3.40;;;7.50;99.90;;;-144.05;75.78;57023.00;5093978;28;20103;-77
2024/02/06 04:40:31;;;;;;;8.90;3.30;;;7.40;99.90;;;-144.05;75.93;57012.38;5089412;28;20116;-80
2024/02/06 04:42:57;;;;;;;8.93;2.90;;;6.80;99.90;;;-144.05;75.10;57027.25;5090952;28;20027;-78
2024/02/06 04:45:23;;;;;;;10.48;3.70;;;7.00;99.90;;;-144.05;74.96;57014.50;5102009;28;20024;-77
2024/02/06 04:47:50;;;;;;;10.73;3.30;;;;;;;-144.05;75.58;57012.38;5094824;28;20109;-79
2024/02/06 04:50:21;;;;;;;12.43;3.55;;;;;;;-144.05;75.61;56999.63;5093724;28;20069;-78
2024/02/06 04:52:47;;;;;;;13.10;3.40;;;;;;;-144.05;75.62;57023.00;5106389;28;20028;-78
2024/02/06 04:55:14;;;;;;;9.43;3.30;;;;;;;-144.05;75.20;57018.75;5092207;28;20031;-79
2024/02/06 04:57:40;;;;;;;10.52;2.95;;;7.00;99.90;;;-144.05;74.95;57029.38;5092090;28;20103;-80
2024/02/06 05:00:12;;;;;;;13.48;3.80;;;6.20;99.90;;;-144.05;74.99;57025.13;5094561;28;20100;-79
2024/02/06 05:02:39;;;;;;;7.25;3.00;;;;;;;-144.05;75.59;57018.75;5094353;28;20538;-80
2024/02/06 05:05:06;;;;;;;11.23;3.92;;;;;;;-144.05;75.35;56999.63;5092618;28;20027;-80
2024/02/06 05:07:33;;;;;;;5.78;2.65;;;9.50;99.90;;;-144.05;75.13;57014.50;5094505;28;20032;-80
2024/02/06 05:09:59;;;;;;;8.32;3.22;;;;;;;-144.05;75.30;57016.63;5094616;28;20036;-80
2024/02/06 05:12:26;;;;;;;11.63;3.92;;;;;;;-144.05;75.55;57033.63;5094645;28;20073;-81
2024/02/06 05:14:52;;;;;;;10.77;3.50;;;;;;;-144.05;76.26;57016.63;5096165;28;20024;-79
2024/02/06 05:17:19;;;;;;;9.05;3.33;;;;;;;-144.05;76.59;57031.50;5093235;28;20016;-79
2024/02/06 05:19:45;;;;;;;10.07;3.33;;;;;;;-144.05;77.13;57025.13;5099039;28;20103;-81
2024/02/06 05:22:11;;;;;;;6.68;3.80;;;;;;;-144.05;77.65;57001.75;5094852;28;20031;-80
2024/02/06 05:24:37;;;;;;;13.43;4.18;;;6.80;99.90;;;-144.05;77.31;57020.88;5096527;28;20048;-79
2024/02/06 05:27:04;;;;;;;14.25;3.95;;;7.30;99.90;;;-144.05;77.59;57014.50;5092606;28;20035;-79
2024/02/06 05:29:34;;;;;;;8.68;3.80;;;;;;;-144.05;77.81;57018.75;5100799;28;20081;-81
2024/02/06 05:32:00;;;;;;;8.57;3.42;;;7.00;99.90;;;-144.05;77.43;57001.75;5099804;28;20050;-79
2024/02/06 05:34:26;;;;;;;6.70;3.28;;;7.00;99.90;;;-144.05;77.74;57025.13;5108472;28;20032;-82
2024/02/06 05:36:52;;;;;;;9.20;3.58;;;;;;;-144.05;78.08;57003.88;5098786;28;20035;-78
2024/02/06 05:39:18;;;;;;;13.13;3.47;;;7.50;99.90;;;-144.05;78.26;57023.00;5094524;28;20028;-81
2024/02/06 05:41:44;;;;;;;12.55;4.20;;;;;;;-144.05;78.11;57008.13;5094710;28;20090;-78
2024/02/06 05:44:10;;;;;;;10.18;3.58;;;7.60;99.90;;;-144.05;77.84;57001.75;5095603;28;20027;-78
2024/02/06 05:46:36;;;;;;;13.23;4.78;;;8.30;99.90;;;-144.05;77.63;57031.50;5094672;28;20031;-81
2024/02/06 05:49:02;;;;;;;10.43;3.97;;;7.70;99.90;;;-144.05;79.20;57018.75;5094824;28;20093;-82
2024/02/06 05:51:28;;;;;;;13.23;3.85;;;7.20;99.90;;;-144.05;79.38;57031.50;5093968;28;20027;-81
2024/02/06 05:53:54;;;;;;;10.10;3.80;;;7.10;99.90;;;-144.05;79.50;57023.00;5103500;28;20485;-80
2024/02/06 05:56:21;;;;;;;10.48;4.07;;;;;;;-144.05;80.27;57023.00;5103100;28;20133;-81
2024/02/06 05:58:47;;;;;;;12.55;4.10;;;;;;;-144.05;80.02;57020.88;5097060;28;20044;-79
2024/02/06 06:01:13;;;;;;;8.13;4.50;;;;;;;-144.05;80.50;57020.88;5109193;28;20035;-80
2024/02/06 06:03:39;;;;;;;14.38;4.82;;;7.10;99.90;;;-144.05;80.56;56999.63;5093631;28;20497;-79
2024/02/06 06:06:06;;;;;;;7.50;4.60;;;13.90;99.90;;;-144.05;79.85;57029.38;5093648;28;20046;-80
2024/02/06 06:08:32;;;;;;;8.25;4.22;;;;;;;-144.05;79.99;57040.00;5092672;28;20024;-79
2024/02/06 06:10:58;;;;;;;10.80;4.65;;;7.10;99.90;;;-144.05;80.29;57018.75;5094337;28;20091;-79
2024/02/06 06:13:27;;;;;;;15.48;4.57;;;7.60;99.90;;;-144.05;80.38;57018.75;5094256;28;20113;-80
2024/02/06 06:15:53;;;;;;;9.10;3.78;;;;;;;-144.05;80.18;57040.00;5103819;28;20085;-78
2024/02/06 06:18:19;;;;;;;11.20;4.90;;;8.30;99.90;;;-144.05;80.34;57033.63;5109468;28;20050;-77
2024/02/06 06:20:45;;;;;;;7.10;4.03;;;;;;;-144.05;80.82;57016.63;5093207;28;20212;-81
2024/02/06 06:23:12;;;;;;;10.18;4.20;;;;;;;-144.05;80.61;57014.50;5097822;28;20088;-80
2024/02/06 06:25:38;;;;;;;11.60;4.63;;;14.10;99.90;;;-144.05;81.14;57008.13;5110934;28;20023;-81
2024/02/06 06:28:07;;;;;;;9.38;4.07;;;;;;;-144.05;81.02;57029.38;5104559;28;20107;-79
2024/02/06 06:30:34;;;;;;;8.90;4.10;;;13.70;99.90;;;-144.05;80.14;57010.25;5094844;28;20028;-81
2024/02/06 06:32:59;;;;;;;8.98;4.28;;;6.80;99.90;;;-144.05;79.70;56999.63;5094141;28;20412;-79
2024/02/06 06:35:26;;;;;;;7.75;4.05;;;;;;;-144.05;79.60;57033.63;5092991;28;20070;-80
2024/02/06 06:37:52;;;;;;;16.10;4.57;;;7.50;99.90;;;-144.05;78.77;57012.38;5093477;28;20019;-79
2024/02/06 06:40:18;;;;;;;12.02;5.22;;;;;;;-144.05;78.73;57014.50;5093902;28;20081;-80
2024/02/06 06:42:44;;;;;;;11.52;4.20;;;6.90;99.90;;;-144.05;78.54;57014.50;5092958;28;20058;-79
2024/02/06 06:45:10;;;;;;;9.05;3.78;;;7.50;99.90;;;-144.05;78.01;57020.88;5093093;28;20042;-79
2024/02/06 06:47:36;;;;;;;13.25;4.30;;;14.00;99.90;;;-144.05;78.25;57014.50;5091617;28;20036;-79
2024/02/06 06:50:02;;;;;;;12.57;4.55;;;14.30;99.90;;;-144.05;78.39;56982.66;5091870;28;20536;-78
2024/02/06 06:52:30;;;;;;;11.23;5.00;;;7.00;99.90;;;-144.05;78.68;57008.13;5093576;28;20086;-79
2024/02/06 06:54:56;;;;;;;12.02;4.32;;;7.40;99.90;;;-144.05;78.04;56997.50;5092447;28;20098;-80
2024/02/06 06:57:22;;;;;;;16.58;4.97;;;7.40;99.90;;;-144.05;77.88;57006.00;5095746;28;20036;-80
2024/02/06 06:59:48;;;;;;;8.95;4.20;;;;;;;-144.05;77.71;57001.75;5098339;28;20026;-79
2024/02/06 07:02:14;;;;;;;11.25;4.38;;;;;;;-144.05;78.15;57027.25;5097736;28;20024;-79
2024/02/06 07:04:40;;;;;;;13.48;5.03;;;7.60;99.90;;;-144.05;77.83;57014.50;5093380;28;20042;-78
2024/02/06 07:07:06;;;;;;;9.25;3.78;;;14.40;99.90;;;-144.05;77.85;57014.50;5092021;28;20028;-78
2024/02/06 07:09:32;;;;;;;12.57;4.10;;;7.60;99.90;;;-144.05;78.20;57008.13;5099344;28;20032;-79
2024/02/06 07:11:58;;;;;;;11.40;4.28;;;7.30;99.90;;;-144.05;78.43;56999.63;5092083;28;20035;-78
2024/02/06 07:14:23;;;;;;;14.52;4.95;;;6.80;99.90;;;-144.05;78.40;57014.50;5095882;28;20063;-80
2024/02/06 07:16:49;;;;;;;14.80;4.05;;;7.70;99.90;;;-144.05;77.36;57031.50;5101700;28;20035;-80
2024/02/06 07:19:15;;;;;;;13.25;4.60;;;7.00;99.90;;;-144.05;77.37;56993.25;5094577;28;20024;-77
2024/02/06 07:21:41;;;;;;;13.95;3.95;;;7.50;99.90;;;-144.05;77.74;57001.75;5096540;28;20028;-79
2024/02/06 07:24:08;;;;;;;11.35;4.80;;;;;;;-144.05;77.23;57029.38;5095771;28;20020;-78
2024/02/06 07:26:34;;;;;;;10.93;4.82;;;;;;;-144.05;77.86;56997.50;5094719;28;20032;-79
2024/02/06 07:29:00;;;;;;;14.38;4.72;;;7.40;99.90;;;-144.05;77.58;57008.13;5095310;28;20020;-80
2024/02/06 07:31:26;;;;;;;11.48;3.97;;;;;;;-144.05;77.09;56997.50;5094979;28;20114;-79
2024/02/06 07:33:52;;;;;;;15.90;4.57;;;7.20;99.90;;;-144.05;77.54;57027.25;5095738;28;20027;-79
2024/02/06 07:36:18;;;;;;;9.10;4.13;;;;;;;-144.05;77.78;57012.38;5095778;28;20024;-80
2024/02/06 07:38:48;;;;;;;13.57;5.15;;;7.60;99.90;;;-144.05;77.68;57027.25;5095885;28;20024;-79
2024/02/06 07:41:13;;;;;;;7.57;4.05;;;14.00;99.90;;;-144.05;77.60;56991.13;5096974;28;20028;-79
2024/02/06 07:43:39;;;;;;;14.65;5.03;;;7.60;99.90;;;-144.05;77.83;57014.50;5099010;28;20038;-79
2024/02/06 07:46:05;;;;;;;15.02;4.35;;;7.00;99.90;;;-144.05;78.07;57023.00;5095345;28;20024;-76
2024/02/06 07:48:33;;;;;;;10.82;4.53;;;7.00;99.90;;;-144.05;78.85;57033.63;5094336;28;20039;-77
2024/02/06 07:51:00;;;;;;;13.07;4.10;;;9.70;99.90;;;-144.05;77.96;56993.25;5096540;28;20392;-79
2024/02/06 07:53:26;;;;;;;11.95;4.82;;;14.20;99.90;;;-144.05;77.89;57001.75;5096169;28;20024;-79
2024/02/06 07:55:52;;;;;;;8.48;5.00;;;;;;;-144.05;78.42;57025.13;5095395;28;20020;-78
2024/02/06 07:58:18;;;;;;;9.80;4.60;;;;;;;-144.05;78.78;57027.25;5095529;28;20148;-78
2024/02/06 08:00:45;;;;;;;14.75;4.47;;;7.70;99.90;;;-144.05;79.15;57018.75;5094186;28;20035;-79
2024/02/06 08:03:11;;;;;;;12.13;4.65;;;;;;;-144.05;79.32;57031.50;5100408;28;20042;-77
2024/02/06 08:05:37;;;;;;;13.95;5.30;;;;;;;-144.05;78.70;57023.00;5095491;28;20066;-77
2024/02/06 08:08:04;;;;;;;12.45;5.18;;;7.70;99.90;;;-144.05;78.70;57010.25;5094974;28;20016;-78
2024/02/06 08:10:31;;;;;;;13.68;4.72;;;;;;;-144.05;78.45;57025.13;5095666;28;20040;-80
2024/02/06 08:12:58;;;;;;;10.90;4.57;;;;;;;-144.05;78.52;57023.00;5093489;28;20031;-79
2024/02/06 08:15:24;;;;;;;14.27;4.13;;;;;;;-144.05;78.51;57012.38;5100177;28;20028;-78
2024/02/06 08:17:50;;;;;;;11.60;4.68;;;14.20;99.90;;;-144.05;78.63;57001.75;5112612;28;20054;-77
2024/02/06 08:20:19;;;;;;;15.50;4.75;;;9.80;99.90;;;-144.05;78.72;57014.50;5101437;28;20420;-78
2024/02/06 08:22:49;;;;;;;10.32;4.43;;;9.80;99.90;;;-144.05;78.30;57014.50;5094955;28;20024;-78
2024/02/06 08:25:18;;;;;;;10.75;4.10;;;9.90;99.90;;;-144.05;78.18;57040.00;5095477;28;20028;-78
2024/02/06 08:27:44;;;;;;;15.73;4.80;;;10.40;99.90;;;-144.05;78.67;57050.63;5100336;28;20028;-80
2024/02/06 08:30:13;;;;;;;12.38;5.00;;;7.20;99.90;;;-144.05;78.43;56999.63;5099392;28;20409;-76
2024/02/06 08:32:38;;;;;;;12.30;4.88;;;7.30;99.90;;;-144.05;79.02;57008.13;5091668;28;20039;-78
2024/02/06 08:35:05;;;;;;;18.58;5.85;;;7.00;99.90;;;-144.05;79.16;57001.75;5097929;28;20044;-77
2024/02/06 08:37:31;;;;;;;13.32;4.53;;;7.20;99.90;;;-144.05;79.13;57008.13;5092381;28;20028;-77
2024/02/06 08:39:59;;;;;;;13.43;4.47;;;7.10;99.90;;;-144.05;79.02;56999.63;5093029;28;20047;-76
2024/02/06 08:42:25;;;;;;;16.17;4.63;;;;;;;-144.05;79.55;57031.50;5093191;28;20123;-78
2024/02/06 08:44:51;;;;;;;16.58;5.38;;;;;;;-144.05;79.42;57029.38;5092859;28;20081;-79
2024/02/06 08:47:18;;;;;;;14.00;4.15;;;;;;;-144.05;79.42;57014.50;5092074;28;20081;-78
2024/02/06 08:49:44;;;;;;;10.25;3.70;;;;;;;-144.05;79.48;57025.13;5091807;28;20020;-76
2024/02/06 08:52:10;;;;;;;8.32;3.75;;;;;;;-144.05;78.51;57006.00;5093436;28;20027;-81
2024/02/06 08:54:36;;;;;;;18.95;4.53;;;11.00;99.90;;;-144.05;78.34;57014.50;5093757;28;20515;-79
2024/02/06 08:57:02;;;;;;;7.85;3.70;;;;;;;-144.05;77.39;57020.88;5092223;28;20032;-77
2024/02/06 08:59:28;;;;;;;12.38;4.00;;;;;;;-144.05;77.17;57001.75;5105839;28;20020;-78
2024/02/06 09:01:55;;;;;;;12.80;3.78;;;;;;;-144.05;76.97;57025.13;5093937;28;20031;-78
2024/02/06 09:04:21;;;;;;;13.10;4.82;;;;;;;-144.05;76.24;57006.00;5092601;28;20040;-77
2024/02/06 09:06:47;;;;;;;10.60;3.67;;;8.50;99.90;;;-144.05;75.95;57008.13;5092321;28;20042;-75
2024/02/06 09:09:13;;;;;;;12.48;4.38;;;7.90;99.90;;;-144.05;76.17;57012.38;5093806;28;20438;-76
2024/02/06 09:11:40;;;;;;;8.43;3.35;;;7.00;99.90;;;-144.05;76.25;56997.50;5097044;28;20020;-78
2024/02/06 09:14:06;;;;;;;9.65;3.67;;;7.00;99.90;;;-144.05;76.58;57027.25;5094207;28;20020;-79
2024/02/06 09:16:32;;;;;;;11.95;4.00;;;;;;;-144.05;76.41;56967.78;5093023;28;20028;-79
2024/02/06 09:18:58;;;;;;;12.88;3.20;;;7.20;99.90;;;-144.05;75.89;57012.38;5093377;28;20103;-78
2024/02/06 09:21:24;;;;;;;12.07;3.03;;;;;;;-144.05;75.87;56993.25;5095018;28;20060;-79
2024/02/06 09:23:50;;;;;;;9.90;4.18;;;14.00;99.90;;;-144.05;76.08;57003.88;5095174;28;20032;-81
2024/02/06 09:26:16;;;;;;;8.70;3.60;;;6.80;99.90;;;-144.05;75.79;57003.88;5093702;28;20096;-80
2024/02/06 09:28:43;;;;;;;15.88;3.72;;;10.50;99.90;;;-144.05;76.20;56997.50;5093753;28;20054;-78
2024/02/06 09:31:10;;;;;;;11.45;3.30;;;7.20;99.90;;;-144.05;75.97;57008.13;5095051;28;20020;-81
2024/02/06 09:33:36;;;;;;;7.43;3.10;;;;;;;-144.05;75.68;57010.25;5093520;28;20024;-75
2024/02/06 09:36:05;;;;;;;12.52;3.63;;;7.30;99.90;;;-144.05;75.49;57003.88;5097493;28;20520;-78
2024/02/06 09:38:31;;;;;;;9.45;3.10;;;;;;;-144.05;75.14;56995.38;5102052;28;20389;-78
2024/02/06 09:40:59;;;;;;;9.02;3.78;;;14.00;99.90;;;-144.05;74.95;57027.25;5093782;28;20077;-80
2024/02/06 09:43:25;;;;;;;12.00;3.78;;;7.40;99.90;;;-144.05;75.01;57018.75;5102145;28;20099;-79
2024/02/06 09:45:52;;;;;;;12.82;3.47;;;7.80;99.90;;;-144.05;74.93;56991.13;5108918;28;20039;-79
2024/02/06 09:48:18;;;;;;;12.13;3.30;;;7.50;99.90;;;-144.05;74.63;56995.38;5102958;28;20040;-78
2024/02/06 09:50:45;;;;;;;8.95;3.58;;;;;;;-144.05;74.47;57006.00;5111399;28;20024;-79
2024/02/06 09:53:12;;;;;;;10.82;3.60;;;14.00;99.90;;;-144.05;75.30;57029.38;5120624;28;20019;-77
2024/02/06 09:55:47;;;;;;;10.13;3.60;;;10.60;99.90;;;-144.05;77.27;57006.00;5110128;28;20075;-77
2024/02/06 09:58:14;;;;;;;10.32;3.35;;;;;;;-144.05;78.33;57006.00;5102538;28;20431;-78
2024/02/06 10:00:45;;;;;;;13.00;3.40;;;7.60;99.90;;;-144.05;80.32;56997.50;5100648;28;20442;-78
2024/02/06 10:03:22;;;;;;;8.10;3.40;;;8.30;99.90;;;-144.05;82.85;56991.13;5109605;28;20397;-80
2024/02/06 10:05:52;;;;;;;15.60;3.95;;;10.00;99.90;;;-144.05;84.18;56993.25;5095422;28;20595;-77
2024/02/06 10:08:18;;;;;;;5.97;3.33;;;6.80;99.90;;;-144.05;86.13;57001.75;5096548;28;20036;-78
2024/02/06 10:10:49;;;;;;;9.15;4.05;;;9.80;99.90;;;-144.05;86.82;57010.25;5096303;28;20103;-79
2024/02/06 10:13:15;;;;;;;11.38;3.78;;;9.80;99.90;;;-144.05;87.24;57010.25;5096804;28;20024;-79
2024/02/06 10:15:42;;;;;;;10.20;4.47;;;;;;;-144.05;87.49;57025.13;5095980;28;20051;-79
2024/02/06 10:18:08;;;;;;;12.02;4.07;;;;;;;-144.05;87.93;57023.00;5095138;28;20153;-79
2024/02/06 10:20:46;;;;;;;13.63;5.40;;;7.20;99.90;;;-144.05;88.03;57027.25;5107543;28;20176;-77
2024/02/06 10:23:18;;;;;;;12.35;4.72;;;7.00;99.90;;;-144.05;88.15;57010.25;5098621;28;20031;-78
2024/02/06 10:25:46;;;;;;;10.88;4.75;;;9.80;99.90;;;-144.05;87.34;56995.38;5095974;28;20038;-79
2024/02/06 10:28:26;;;;;;;8.23;4.65;;;6.70;99.90;;;-144.05;87.32;57025.13;5095389;28;20085;-75